createdAt,value
2023-04-07T00:02:42.459Z,4.50
2023-04-07T00:08:49.316Z,4.50
2023-04-07T00:14:51.320Z,4.40
2023-04-07T00:20:54.605Z,4.40
2023-04-07T00:26:57.030Z,4.30
2023-04-07T00:32:59.326Z,4.30
2023-04-07T00:39:01.496Z,4.30
2023-04-07T00:45:06.585Z,4.30
2023-04-07T00:51:08.721Z,4.20
2023-04-07T00:57:11.072Z,4.20
2023-04-07T01:03:31.892Z,4.10
2023-04-07T01:09:47.753Z,4.20
2023-04-07T01:15:53.070Z,4.00
2023-04-07T01:21:58.916Z,3.90
2023-04-07T01:28:02.194Z,3.90
2023-04-07T01:34:08.720Z,3.70
2023-04-07T01:40:11.575Z,3.70
2023-04-07T01:46:14.346Z,3.70
2023-04-07T01:52:17.328Z,3.70
2023-04-07T01:58:19.134Z,3.70
2023-04-07T02:04:38.981Z,3.70
2023-04-07T02:10:41.884Z,3.60
2023-04-07T02:16:47.458Z,3.50
2023-04-07T02:22:50.889Z,3.40
2023-04-07T02:28:52.951Z,3.40
2023-04-07T02:34:55.059Z,3.40
2023-04-07T02:40:57.069Z,3.40
2023-04-07T02:46:58.996Z,3.30
2023-04-07T02:53:00.984Z,3.30
2023-04-07T02:59:02.978Z,3.30
2023-04-07T03:05:09.436Z,3.20
2023-04-07T03:11:11.700Z,3.20
2023-04-07T03:17:13.693Z,3.10
2023-04-07T03:23:16.560Z,3.20
2023-04-07T03:29:19.858Z,3.10
2023-04-07T03:35:22.228Z,3.30
2023-04-07T03:41:24.307Z,3.20
2023-04-07T03:47:26.525Z,3.20
2023-04-07T03:53:33.200Z,3.10
2023-04-07T03:59:40.136Z,3.10
2023-04-07T04:05:42.973Z,3.10
2023-04-07T04:11:49.993Z,3.10
2023-04-07T04:17:53.055Z,3.10
2023-04-07T04:23:55.986Z,3.00
2023-04-07T04:29:58.192Z,2.90
2023-04-07T04:36:26.421Z,2.80
2023-04-07T04:42:33.929Z,2.50
2023-04-07T04:48:37.440Z,2.30
2023-04-07T04:54:41.357Z,1.90
2023-04-07T05:00:45.197Z,1.60
2023-04-07T05:06:47.273Z,1.40
2023-04-07T05:12:52.588Z,1.30
2023-04-07T05:18:54.655Z,1.20
2023-04-07T05:24:57.098Z,1.00
2023-04-07T05:30:59.053Z,1.00
2023-04-07T05:37:05.516Z,0.90
2023-04-07T05:43:07.838Z,1.00
2023-04-07T05:49:19.666Z,1.00
2023-04-07T05:55:27.632Z,1.10
2023-04-07T06:01:30.416Z,1.20
2023-04-07T06:07:33.437Z,1.30
2023-04-07T06:13:35.740Z,1.50
2023-04-07T06:19:38.151Z,1.80
2023-04-07T06:25:40.049Z,2.20
2023-04-07T06:31:42.032Z,2.60
2023-04-07T06:37:44.363Z,3.00
2023-04-07T06:43:47.753Z,3.40
2023-04-07T06:49:50.699Z,3.90
2023-04-07T06:56:02.669Z,4.20
2023-04-07T07:02:04.777Z,4.60
2023-04-07T07:08:06.671Z,4.90
2023-04-07T07:14:08.445Z,5.20
2023-04-07T07:20:10.696Z,5.30
2023-04-07T07:26:12.452Z,5.70
2023-04-07T07:32:14.227Z,6.10
2023-04-07T07:38:16.129Z,6.60
2023-04-07T07:44:20.176Z,7.20
2023-04-07T07:50:22.714Z,7.90
2023-04-07T07:56:24.486Z,8.60
2023-04-07T08:02:30.938Z,8.90
2023-04-07T08:08:32.836Z,9.10
2023-04-07T08:14:34.656Z,9.70
2023-04-07T08:20:37.239Z,10.00
2023-04-07T08:26:39.375Z,10.40
2023-04-07T08:32:42.558Z,10.20
2023-04-07T08:38:44.584Z,10.10
2023-04-07T08:44:47.809Z,10.10
2023-04-07T08:50:53.820Z,10.60
2023-04-07T08:56:56.101Z,10.90
2023-04-07T09:03:04.933Z,11.30
2023-04-07T09:09:09.888Z,11.80
2023-04-07T09:15:11.946Z,11.90
2023-04-07T09:21:15.209Z,12.10
2023-04-07T09:27:20.971Z,12.20
2023-04-07T09:33:27.023Z,12.10
2023-04-07T09:39:29.624Z,12.20
2023-04-07T09:45:39.551Z,12.30
2023-04-07T09:51:52.419Z,12.10
2023-04-07T09:57:57.516Z,11.80
2023-04-07T10:04:10.525Z,12.20
2023-04-07T10:10:12.557Z,12.80
2023-04-07T10:16:14.673Z,13.40
2023-04-07T10:22:17.446Z,13.90
2023-04-07T10:28:21.322Z,13.80
2023-04-07T10:34:43.610Z,13.60
2023-04-07T10:40:45.394Z,13.80
2023-04-07T10:46:51.910Z,13.90
2023-04-07T10:53:09.660Z,13.50
2023-04-07T10:59:14.891Z,13.10
2023-04-07T11:05:21.119Z,13.30
2023-04-07T11:11:37.468Z,13.80
2023-04-07T11:17:39.208Z,14.10
2023-04-07T11:23:42.327Z,14.40
2023-04-07T11:29:44.148Z,14.20
2023-04-07T11:35:53.623Z,14.10
2023-04-07T11:41:55.548Z,14.10
2023-04-07T11:47:57.307Z,14.20
2023-04-07T11:53:59.030Z,14.30
2023-04-07T12:00:11.576Z,14.80
2023-04-07T12:06:13.452Z,15.20
2023-04-07T12:12:25.050Z,15.50
2023-04-07T12:18:27.137Z,15.70
2023-04-07T12:24:29.015Z,15.80
2023-04-07T12:30:30.798Z,15.80
2023-04-07T12:36:33.279Z,15.70
2023-04-07T12:42:34.992Z,16.00
2023-04-07T12:48:36.686Z,16.20
2023-04-07T12:54:39.408Z,16.40
2023-04-07T13:00:41.752Z,16.30
2023-04-07T13:06:43.639Z,16.50
2023-04-07T13:12:45.476Z,16.50
2023-04-07T13:18:47.202Z,16.70
2023-04-07T13:24:48.876Z,16.60
2023-04-07T13:30:50.810Z,16.70
2023-04-07T13:36:52.541Z,16.80
2023-04-07T13:42:54.293Z,17.00
2023-04-07T13:48:56.445Z,17.10
2023-04-07T13:54:58.728Z,17.20
2023-04-07T14:01:01.567Z,17.30
2023-04-07T14:07:03.832Z,17.40
2023-04-07T14:13:06.371Z,17.30
2023-04-07T14:19:08.461Z,17.30
2023-04-07T14:25:11.369Z,17.40
2023-04-07T14:31:14.709Z,17.50
2023-04-07T14:37:19.227Z,17.60
2023-04-07T14:43:21.672Z,17.50
2023-04-07T14:49:26.119Z,17.70
2023-04-07T14:55:28.569Z,17.00
2023-04-07T15:01:31.679Z,16.40
2023-04-07T15:07:34.431Z,16.10
2023-04-07T15:13:36.882Z,16.10
2023-04-07T15:19:39.616Z,16.40
2023-04-07T15:25:42.114Z,16.10
2023-04-07T15:31:44.560Z,15.80
2023-04-07T15:37:47.790Z,15.60
2023-04-07T15:43:50.784Z,15.10
2023-04-07T15:49:53.244Z,14.90
2023-04-07T15:55:56.187Z,14.80
2023-04-07T16:01:58.823Z,14.80
2023-04-07T16:08:01.630Z,15.40
2023-04-07T16:14:03.953Z,15.80
2023-04-07T16:20:10.055Z,16.00
2023-04-07T16:26:11.770Z,16.10
2023-04-07T16:32:13.848Z,16.10
2023-04-07T16:38:15.781Z,15.50
2023-04-07T16:44:17.564Z,15.10
2023-04-07T16:50:19.398Z,14.70
2023-04-07T16:56:22.377Z,14.20
2023-04-07T17:02:24.557Z,14.20
2023-04-07T17:08:26.344Z,14.40
2023-04-07T17:14:28.606Z,14.40
2023-04-07T17:20:30.443Z,14.40
2023-04-07T17:26:32.451Z,14.10
2023-04-07T17:32:34.212Z,13.80
2023-04-07T17:38:36.031Z,13.70
2023-04-07T17:44:37.733Z,13.40
2023-04-07T17:50:42.278Z,12.80
2023-04-07T17:56:43.974Z,12.00
2023-04-07T18:02:46.360Z,11.00
2023-04-07T18:08:48.336Z,10.20
2023-04-07T18:15:07.203Z,9.40
2023-04-07T18:21:08.976Z,8.70
2023-04-07T18:27:10.698Z,8.10
2023-04-07T18:33:14.250Z,7.70
2023-04-07T18:39:15.987Z,7.10
2023-04-07T18:45:17.768Z,6.70
2023-04-07T18:51:19.510Z,6.30
2023-04-07T18:57:21.445Z,6.10
2023-04-07T19:03:23.269Z,5.70
2023-04-07T19:09:25.930Z,5.50
2023-04-07T19:15:28.237Z,5.20
2023-04-07T19:21:29.919Z,5.00
2023-04-07T19:27:32.326Z,4.80
2023-04-07T19:33:34.564Z,4.70
2023-04-07T19:39:36.270Z,4.50
2023-04-07T19:45:38.193Z,4.30
2023-04-07T19:51:42.103Z,4.10
2023-04-07T19:57:46.241Z,4.00
2023-04-07T20:03:49.561Z,4.00
2023-04-07T20:09:55.055Z,3.80
2023-04-07T20:15:56.794Z,3.60
2023-04-07T20:21:58.506Z,3.50
2023-04-07T20:28:00.326Z,3.50
2023-04-07T20:34:02.020Z,3.50
2023-04-07T20:40:07.481Z,3.30
2023-04-07T20:46:13.539Z,3.20
2023-04-07T20:52:16.726Z,3.10
2023-04-07T20:58:19.376Z,2.90
2023-04-07T21:04:21.496Z,2.80
2023-04-07T21:10:23.282Z,2.90
2023-04-07T21:16:25.120Z,2.90
